ADDS METAR Data INFO
IDs: Format: Raw Decoded Include TAF

Data at: 0205 UTC 14 Dec 2017

KBTL 140153Z 02012KT 1 1/2SM -SN BR OVC018 M06/M08 A2940 RMK AO2 SLP969 P0001 T10611078
KBTL 140102Z 04009KT 1 1/4SM -SN BR BKN020 BKN025 OVC030 M06/M07 A2935 RMK AO2 P0000 T10561072
KBTL 140053Z 05008KT 2SM -SN BR BKN024 OVC033 M06/M07 A2934 RMK AO2 SLP951 P0000 T10561072
KBTL 140051Z 05008KT 2 1/2SM -SN BR FEW021 BKN027 OVC033 M06/M07 A2935 RMK AO2 P0000
KBTL 140020Z 07008KT 3SM -SN BR OVC030 M06/M07 A2933 RMK AO2 P0000 T10561072
KBTL 140014Z 07008KT 2 1/2SM -SN BR OVC022 M06/M07 A2933 RMK AO2 P0000 T10561072
KBTL 132353Z 08008KT 1SM R23R/6000VP6000FT -SN BR VV015 M06/M07 A2933 RMK AO2 SLP944 P0002 60010 T10561067 11039 21056 55002
KBTL 132338Z 08007KT 1SM R23R/P6000FT -SN BR VV016 M06/M07 A2933 RMK AO2 P0002 T10561067
KBTL 132253Z 08010KT 1SM R23R/P6000FT -SN BR VV012 M06/M07 A2932 RMK AO2 SLP942 P0004 T10561067
KBTL 132246Z 08008KT 1SM R23R/6000VP6000FT -SN BR VV010 M05/M07 A2932 RMK AO2 P0004 T10501067
KBTL 132230Z 09007KT 3/4SM R23R/3500VP6000FT -SN BR VV008 M05/M07 A2932 RMK AO2 P0003 T10501067
KBTL 132217Z 10008KT 1/4SM R23R/3500V5500FT SN FZFG VV009 M05/M07 A2933 RMK AO2 P0001 T10501067
KBTL 132211Z 10007KT 1/2SM R23R/4000V5500FT SN FZFG VV010 M05/M07 A2933 RMK AO2 P0001 T10501067
KBTL 132201Z 11007KT 1/2SM R23R/4000V4500FT SN FZFG VV009 M05/M07 A2933 RMK AO2 P0000 T10501067
KBTL 132153Z 12007KT 1/2SM R23R/4000V4500FT SN FZFG VV010 M05/M07 A2933 RMK AO2 SLP947 P0004 T10501067
KBTL 132151Z 12007KT 1/2SM R23R/4000V4500FT SN FZFG VV009 M05/M07 A2933 RMK AO2 P0004
KBTL 132129Z 12008KT 1/4SM R23R/3000V3500FT SN FZFG VV009 M05/M07 A2934 RMK AO2 P0002 T10501067
KBTL 132113Z 12006KT 1/2SM R23R/3500V4500FT SN FZFG VV013 M05/M07 A2935 RMK AO2 P0001 T10501072
KBTL 132106Z 13005KT 1/2SM R23R/4500V5000FT SN VV015 M05/M08 A2935 RMK AO2 P0001 T10501078
KBTL 132053Z 13006KT 1 1/2SM R23R/6000VP6000FT -SN OVC019 M04/M08 A2935 RMK AO2 SNB19 SLP951 P0000 60000 T10441083 56037
KBTL 132034Z 14007KT 1 1/2SM -SN BKN027 OVC043 M04/M09 A2935 RMK AO2 SNB19 P0000 T10441094
KBTL 131953Z 15010G19KT 10SM OVC041 M04/M11 A2937 RMK AO2 SLP959 T10441106
KBTL 131853Z 13009KT 10SM BKN050 OVC070 M04/M11 A2940 RMK AO2 PRESFR SLP968 T10441106
KBTL 131753Z 15011KT 10SM FEW031 BKN110 M05/M10 A2946 RMK AO2 SNB00E09 SLP989 P0000 60000 T10501100 11050 21083 58069
KBTL 131653Z 15013G18KT 10SM BKN035 OVC090 M06/M11 A2954 RMK AO2 SLP017 T10611106
KBTL 131553Z 15010KT 9SM FEW009 BKN030 OVC036 M08/M10 A2963 RMK AO2 SNE49 SLP049 P0000 T10781100
KBTL 131544Z 15012KT 3SM -SN BR SCT009 OVC033 M08/M10 A2963 RMK AO2 P0000 T10781100
KBTL 131541Z 15008KT 2SM -SN BR BKN011 OVC035 M08/M10 A2963 RMK AO2 VIS 1V5 P0000 T10781100
KBTL 131524Z 14009KT 1/2SM R23R/2400V3000FT SN VV012 M08/M11 A2965 RMK AO2 P0000 T10781106
KBTL 131516Z 15010KT 1/2SM R23R/3000V5500FT SN VV015 M08/M11 A2965 RMK AO2 P0000 T10781111
KBTL 131500Z 15010KT 1 3/4SM R23R/5000VP6000FT -SN BKN021 OVC033 M07/M12 A2966 RMK AO2 P0000 T10721122
KBTL 131453Z 15010KT 6SM -SN BKN025 OVC035 M07/M13 A2967 RMK AO2 SNE27B48 SLP062 P0000 60000 T10721128 56022
KBTL 131423Z 15010KT 3SM -SN OVC035 M08/M12 A2968 RMK AO2 P0000 T10781117
KBTL 131416Z 17010KT 1 3/4SM -SN BKN030 OVC037 M08/M12 A2968 RMK AO2 P0000 T10781117
KBTL 131410Z 17010KT 2 1/2SM -SN BKN028 OVC037 M08/M12 A2969 RMK AO2 P0000 T10781122
KBTL 131401Z 17008KT 4SM -SN SCT028 OVC034 M08/M12 A2969 RMK AO2 P0000 T10781122
KBTL 131353Z 18009KT 7SM -SN BKN027 OVC036 M08/M12 A2970 RMK AO2 SNB09 SLP072 P0000 T10781122
KBTL 131335Z 18010KT 7SM -SN SCT027 OVC038 M08/M12 A2970 RMK AO2 SNB09 P0000 T10781122
KBTL 131253Z 18010KT 10SM OVC029 M08/M12 A2973 RMK AO2 SLP084 T10781117
KBTL 131250Z 18009KT 10SM BKN029 OVC035 M08/M12 A2974 RMK AO2
KBTL 131153Z 18008KT 10SM OVC044 M08/M12 A2976 RMK AO2 SLP092 60000 T10831117 11083 21100 56023
KBTL 131053Z 19008KT 10SM FEW055 OVC085 M09/M11 A2978 RMK AO2 SLP099 T10891111
KBTL 130953Z AUTO 17007KT 10SM BKN100 M09/M11 A2980 RMK AO2 SLP109 T10891106
KBTL 130853Z AUTO 18005KT 10SM BKN035 OVC100 M09/M11 A2983 RMK AO2 SNE03 SLP117 P0000 60000 T10941111 56016
KBTL 130836Z AUTO 18005KT 10SM SCT013 OVC036 M09/M11 A2983 RMK AO2 SNE03 P0000 T10891111
KBTL 130811Z AUTO 19004KT 10SM BKN013 BKN025 OVC034 M09/M11 A2984 RMK AO2 SNE03 P0000 T10891111
KBTL 130753Z AUTO 19005KT 5SM -SN BR FEW017 BKN026 OVC039 M09/M11 A2984 RMK AO2 SNB48 SLP122 P0000 T10891111
KBTL 130746Z AUTO 20005KT 9SM FEW017 SCT026 OVC039 M09/M11 A2985 RMK AO2 T10891111
KBTL 130703Z AUTO 20006KT 10SM SCT021 BKN026 OVC037 M09/M11 A2985 RMK AO2 T10891106
KBTL 130653Z AUTO 21007KT 9SM SCT026 OVC037 M09/M11 A2986 RMK AO2 SNB48E52 SLP125 P0000 T10891106
KBTL 130615Z AUTO 22005KT 10SM SCT024 BKN031 OVC039 M08/M11 A2987 RMK AO2 T10831106
KBTL 130601Z AUTO 23006KT 10SM BKN024 OVC039 M08/M11 A2987 RMK AO2 T10831111
KBTL 130553Z AUTO 23006KT 10SM SCT024 OVC038 M08/M11 A2988 RMK AO2 SLP132 T10831111 11078 21089 58009
KBTL 130526Z AUTO 21004KT 10SM SCT027 OVC037 M08/M12 A2988 RMK AO2 T10831117
KBTL 130453Z AUTO 23004KT 10SM BKN029 BKN034 OVC041 M08/M12 A2989 RMK AO2 SLP137 T10831117 410061089
KBTL 130451Z AUTO 23004KT 10SM BKN029 BKN034 OVC041 M08/M12 A2989 RMK AO2
KBTL 130353Z AUTO 26003KT 10SM OVC039 M08/M12 A2990 RMK AO2 SLP141 T10831122
KBTL 130253Z 28004KT 10SM OVC042 M08/M13 A2992 RMK AO2 SLP148 T10831133 58002
KBTL 130153Z 31005KT 10SM FEW037 OVC045 M08/M13 A2992 RMK AO2 SLP148 T10831133
KBTL 130053Z 31005KT 10SM FEW036 OVC049 M08/M13 A2993 RMK AO2 SLP151 T10831133
KBTL 122353Z 33008KT 10SM OVC047 M08/M13 A2993 RMK AO2 SLP149 T10781133 11056 21078 51009
KBTL 122253Z 32011KT 10SM OVC050 M08/M14 A2992 RMK AO2 SLP147 T10781139
KBTL 122153Z 31007KT 10SM BKN050 M08/M15 A2991 RMK AO2 SLP143 T10781150
KBTL 122053Z 32016G22KT 10SM FEW043 FEW050 M07/M16 A2990 RMK AO2 SLP139 T10721156 55001 $
KBTL 121953Z 33015G23KT 10SM CLR M07/M16 A2989 RMK AO2 PK WND 31028/1933 SLP135 T10671156 $
KBTL 121853Z 30021G26KT 10SM BKN043 BKN050 M06/M14 A2989 RMK AO2 PK WND 31027/1817 SLP135 T10561144 $
KBTL 121753Z 32015G23KT 10SM BKN046 M07/M15 A2990 RMK AO2 PK WND 35028/1729 SLP139 T10671150 11061 21089 58006 $
KBTL 121653Z 32016G25KT 10SM FEW047 M07/M16 A2991 RMK AO2 PK WND 35026/1642 SLP140 T10671161 $
KBTL 121553Z 35020G25KT 10SM FEW042 M07/M16 A2992 RMK AO2 SLP145 T10671156 $
KBTL 121453Z 33015G20KT 10SM FEW035 M07/M14 A2992 RMK AO2 SLP145 T10721139 51016 $